createdAt,value
2023-06-29T00:01:30.930Z,89.60
2023-06-29T00:03:33.234Z,88.93
2023-06-29T00:05:36.756Z,90.14
2023-06-29T00:07:38.331Z,90.64
2023-06-29T00:09:40.449Z,91.82
2023-06-29T00:11:41.961Z,92.27
2023-06-29T00:13:43.531Z,92.45
2023-06-29T00:15:45.766Z,92.67
2023-06-29T00:17:48.514Z,92.98
2023-06-29T00:19:50.289Z,93.66
2023-06-29T00:21:51.896Z,93.76
2023-06-29T00:23:54.654Z,92.39
2023-06-29T00:25:57.510Z,90.81
2023-06-29T00:27:59.559Z,88.65
2023-06-29T00:30:01.196Z,87.75
2023-06-29T00:32:02.780Z,87.85
2023-06-29T00:34:04.335Z,87.47
2023-06-29T00:36:06.085Z,88.26
2023-06-29T00:38:07.563Z,87.84
2023-06-29T00:40:10.563Z,88.47
2023-06-29T00:42:12.105Z,89.37
2023-06-29T00:44:13.596Z,88.84
2023-06-29T00:46:19.406Z,87.47
2023-06-29T00:48:20.989Z,86.24
2023-06-29T00:50:22.952Z,85.00
2023-06-29T00:52:24.816Z,84.15
2023-06-29T00:54:26.605Z,83.09
2023-06-29T00:56:31.903Z,82.31
2023-06-29T00:58:33.451Z,81.63
2023-06-29T01:00:35.242Z,81.55
2023-06-29T01:02:41.233Z,80.69
2023-06-29T01:04:47.010Z,80.49
2023-06-29T01:06:56.042Z,80.62
2023-06-29T01:09:07.037Z,80.94
2023-06-29T01:11:09.332Z,81.18
2023-06-29T01:13:11.300Z,83.58
2023-06-29T01:15:12.958Z,84.39
2023-06-29T01:17:18.834Z,87.43
2023-06-29T01:19:24.621Z,88.85
2023-06-29T01:21:26.977Z,90.60
2023-06-29T01:23:37.463Z,90.28
2023-06-29T01:25:39.265Z,90.94
2023-06-29T01:27:44.705Z,90.97
2023-06-29T01:29:46.323Z,90.37
2023-06-29T01:31:48.315Z,91.47
2023-06-29T01:33:49.927Z,92.40
2023-06-29T01:36:01.298Z,93.14
2023-06-29T01:38:13.801Z,93.65
2023-06-29T01:40:19.808Z,93.53
2023-06-29T01:42:22.426Z,93.14
2023-06-29T01:44:24.191Z,93.69
2023-06-29T01:46:26.385Z,94.62
2023-06-29T01:48:28.469Z,94.87
2023-06-29T01:50:30.884Z,94.35
2023-06-29T01:52:32.606Z,93.75
2023-06-29T01:54:34.274Z,92.84
2023-06-29T01:56:35.831Z,93.52
2023-06-29T01:58:37.344Z,94.38
2023-06-29T02:00:38.976Z,94.73
2023-06-29T02:02:40.892Z,95.52
2023-06-29T02:04:42.426Z,95.78
2023-06-29T02:06:43.908Z,95.56
2023-06-29T02:08:46.012Z,95.18
2023-06-29T02:10:47.520Z,95.63
2023-06-29T02:12:49.033Z,95.83
2023-06-29T02:14:50.547Z,96.05
2023-06-29T02:16:52.701Z,96.67
2023-06-29T02:18:54.219Z,96.88
2023-06-29T02:20:55.716Z,97.60
2023-06-29T02:22:57.237Z,97.71
2023-06-29T02:24:58.744Z,97.86
2023-06-29T02:27:00.256Z,97.68
2023-06-29T02:29:01.739Z,97.63
2023-06-29T02:31:03.265Z,97.34
2023-06-29T02:33:04.834Z,96.85
2023-06-29T02:35:07.275Z,96.56
2023-06-29T02:37:08.786Z,96.47
2023-06-29T02:39:10.389Z,96.51
2023-06-29T02:41:11.875Z,97.10
2023-06-29T02:43:13.480Z,96.46
2023-06-29T02:45:15.070Z,96.03
2023-06-29T02:47:16.548Z,95.52
2023-06-29T02:49:18.188Z,95.34
2023-06-29T02:51:19.660Z,95.42
2023-06-29T02:53:21.132Z,95.15
2023-06-29T02:55:24.268Z,94.93
2023-06-29T02:57:25.783Z,94.83
2023-06-29T02:59:27.314Z,94.47
2023-06-29T03:01:29.004Z,94.36
2023-06-29T03:03:30.576Z,94.18
2023-06-29T03:05:32.099Z,93.97
2023-06-29T03:07:34.296Z,93.45
2023-06-29T03:09:35.889Z,93.00
2023-06-29T03:11:37.375Z,93.08
2023-06-29T03:13:38.880Z,93.48
2023-06-29T03:15:40.390Z,93.65
2023-06-29T03:17:42.057Z,94.35
2023-06-29T03:19:43.776Z,95.24
2023-06-29T03:21:45.266Z,95.60
2023-06-29T03:23:47.301Z,95.48
2023-06-29T03:25:49.408Z,95.84
2023-06-29T03:27:50.981Z,95.74
2023-06-29T03:29:53.559Z,96.36
2023-06-29T03:31:55.036Z,96.59
2023-06-29T03:33:59.385Z,96.76
2023-06-29T03:36:00.910Z,96.65
2023-06-29T03:38:08.329Z,96.55
2023-06-29T03:40:10.370Z,96.62
2023-06-29T03:42:12.001Z,96.15
2023-06-29T03:44:13.591Z,96.28
2023-06-29T03:46:15.132Z,96.21
2023-06-29T03:48:16.685Z,96.02
2023-06-29T03:50:18.716Z,96.20
2023-06-29T03:52:21.429Z,95.83
2023-06-29T03:54:22.997Z,96.06
2023-06-29T03:56:24.594Z,95.85
2023-06-29T03:58:26.203Z,95.45
2023-06-29T04:00:27.856Z,95.48
2023-06-29T04:02:29.650Z,95.18
2023-06-29T04:04:31.299Z,95.28
2023-06-29T04:06:32.857Z,95.33
2023-06-29T04:08:34.645Z,95.28
2023-06-29T04:10:36.454Z,95.64
2023-06-29T04:12:38.017Z,95.23
2023-06-29T04:14:39.580Z,95.39
2023-06-29T04:16:41.159Z,94.83
2023-06-29T04:18:42.735Z,94.93
2023-06-29T04:20:44.241Z,94.95
2023-06-29T04:22:45.743Z,94.73
2023-06-29T04:24:47.338Z,94.77
2023-06-29T04:26:48.842Z,94.63
2023-06-29T04:28:50.395Z,94.56
2023-06-29T04:30:51.954Z,94.51
2023-06-29T04:32:53.621Z,94.45
2023-06-29T04:34:55.293Z,94.34
2023-06-29T04:36:57.696Z,94.22
2023-06-29T04:38:59.994Z,94.12
2023-06-29T04:41:05.141Z,94.19
2023-06-29T04:43:09.883Z,94.21
2023-06-29T04:45:13.754Z,94.18
2023-06-29T04:47:15.457Z,94.47
2023-06-29T04:49:16.966Z,94.46
2023-06-29T04:51:19.657Z,94.41
2023-06-29T04:53:21.241Z,94.70
2023-06-29T04:55:23.926Z,94.70
2023-06-29T04:57:27.424Z,94.79
2023-06-29T04:59:30.996Z,94.75
2023-06-29T05:01:32.519Z,94.77
2023-06-29T05:03:34.412Z,94.74
2023-06-29T05:05:35.919Z,94.62
2023-06-29T05:07:39.105Z,94.34
2023-06-29T05:09:40.890Z,94.36
2023-06-29T05:11:42.849Z,94.52
2023-06-29T05:13:44.354Z,94.29
2023-06-29T05:15:48.931Z,93.98
2023-06-29T05:17:50.549Z,93.80
2023-06-29T05:19:52.128Z,93.61
2023-06-29T05:21:53.733Z,93.47
2023-06-29T05:23:55.697Z,93.04
2023-06-29T05:25:57.280Z,92.99
2023-06-29T05:27:58.806Z,92.84
2023-06-29T05:30:00.371Z,92.53
2023-06-29T05:32:01.964Z,92.59
2023-06-29T05:34:03.448Z,92.57
2023-06-29T05:36:05.128Z,92.14
2023-06-29T05:38:06.724Z,92.05
2023-06-29T05:40:09.518Z,91.87
2023-06-29T05:42:11.095Z,92.10
2023-06-29T05:44:12.603Z,92.15
2023-06-29T05:46:14.122Z,92.21
2023-06-29T05:48:15.788Z,92.34
2023-06-29T05:50:17.507Z,92.11
2023-06-29T05:52:19.025Z,91.92
2023-06-29T05:54:20.548Z,91.66
2023-06-29T05:56:22.037Z,91.52
2023-06-29T05:58:25.115Z,91.26
2023-06-29T06:00:26.857Z,91.06
2023-06-29T06:02:28.525Z,90.54
2023-06-29T06:04:30.068Z,89.88
2023-06-29T06:06:31.927Z,89.66
2023-06-29T06:08:34.151Z,88.60
2023-06-29T06:10:36.018Z,88.40
2023-06-29T06:12:37.564Z,88.38
2023-06-29T06:14:39.298Z,88.03
2023-06-29T06:16:40.940Z,87.99
2023-06-29T06:18:42.486Z,87.87
2023-06-29T06:20:44.176Z,87.03
2023-06-29T06:22:45.812Z,86.34
2023-06-29T06:24:47.327Z,85.85
2023-06-29T06:26:48.824Z,85.20
2023-06-29T06:28:52.138Z,85.04
2023-06-29T06:30:55.037Z,84.92
2023-06-29T06:32:56.730Z,84.64
2023-06-29T06:34:58.484Z,84.54
2023-06-29T06:37:00.061Z,84.04
2023-06-29T06:39:01.598Z,84.23
2023-06-29T06:41:03.133Z,84.09
2023-06-29T06:43:04.969Z,83.94
2023-06-29T06:45:07.533Z,83.48
2023-06-29T06:47:09.075Z,83.56
2023-06-29T06:49:10.559Z,84.10
2023-06-29T06:51:12.049Z,83.89
2023-06-29T06:53:13.639Z,84.04
2023-06-29T06:55:15.183Z,84.22
2023-06-29T06:57:16.713Z,83.20
2023-06-29T06:59:18.211Z,83.38
2023-06-29T07:01:23.564Z,83.17
2023-06-29T07:03:27.195Z,83.48
2023-06-29T07:05:28.814Z,83.73
2023-06-29T07:07:30.394Z,83.16
2023-06-29T07:09:31.966Z,82.68
2023-06-29T07:11:33.550Z,81.99
2023-06-29T07:13:35.035Z,81.69
2023-06-29T07:15:36.566Z,81.58
2023-06-29T07:17:38.083Z,80.95
2023-06-29T07:24:08.082Z,81.27
2023-06-29T07:26:10.162Z,81.27
2023-06-29T07:28:11.680Z,80.95
2023-06-29T07:30:13.778Z,80.28
2023-06-29T07:32:15.290Z,79.89
2023-06-29T07:34:16.880Z,79.27
2023-06-29T07:36:18.396Z,79.16
2023-06-29T07:38:19.963Z,79.38
2023-06-29T07:40:21.491Z,78.76
2023-06-29T07:42:38.142Z,78.74
2023-06-29T07:44:41.376Z,78.09
2023-06-29T07:46:42.855Z,77.43
2023-06-29T07:48:44.428Z,77.62
2023-06-29T07:50:46.029Z,77.37
2023-06-29T07:52:47.879Z,77.02
2023-06-29T07:54:50.538Z,76.19
2023-06-29T07:58:56.496Z,76.10
2023-06-29T08:00:58.260Z,75.24
2023-06-29T08:02:59.809Z,74.70
2023-06-29T08:07:10.069Z,74.36
2023-06-29T08:09:12.357Z,72.73
2023-06-29T08:11:15.196Z,72.80
2023-06-29T08:13:17.306Z,73.15
2023-06-29T08:15:18.817Z,73.66
2023-06-29T08:17:20.535Z,73.67
2023-06-29T08:19:22.319Z,74.30
2023-06-29T08:21:23.952Z,74.27
2023-06-29T08:23:25.509Z,74.91
2023-06-29T08:25:27.062Z,74.72
2023-06-29T08:27:28.553Z,74.16
2023-06-29T08:29:30.035Z,74.08
2023-06-29T08:31:31.632Z,73.56
2023-06-29T08:33:33.249Z,73.80
2023-06-29T08:35:34.939Z,74.27
2023-06-29T08:37:36.526Z,73.70
2023-06-29T08:39:39.614Z,72.62
2023-06-29T08:41:41.097Z,72.61
2023-06-29T08:43:43.102Z,72.41
2023-06-29T08:45:46.276Z,72.79
2023-06-29T08:47:53.026Z,72.21
2023-06-29T08:49:58.016Z,72.48
2023-06-29T08:52:00.810Z,72.05
2023-06-29T08:54:02.991Z,72.29
2023-06-29T08:56:04.967Z,71.38
2023-06-29T08:58:07.013Z,71.66
2023-06-29T09:00:09.832Z,72.25
2023-06-29T09:02:11.837Z,72.24
2023-06-29T09:04:13.545Z,72.42
2023-06-29T09:06:16.244Z,72.92
2023-06-29T09:08:18.469Z,72.54
2023-06-29T09:10:20.054Z,72.74
2023-06-29T09:12:21.595Z,73.19
2023-06-29T09:14:23.870Z,73.30
2023-06-29T09:16:30.078Z,72.90
2023-06-29T09:18:33.675Z,73.43
2023-06-29T09:20:36.187Z,74.04
2023-06-29T09:22:40.444Z,74.01
2023-06-29T09:24:57.367Z,73.95
2023-06-29T09:27:03.996Z,73.44
2023-06-29T09:29:05.605Z,73.44
2023-06-29T09:31:09.792Z,73.52
2023-06-29T09:33:12.849Z,73.31
2023-06-29T09:35:14.461Z,74.04
2023-06-29T09:37:17.243Z,72.98
2023-06-29T09:39:19.702Z,73.50
2023-06-29T09:41:21.241Z,72.39
2023-06-29T09:43:27.609Z,72.54
2023-06-29T09:45:31.699Z,72.37
2023-06-29T09:49:51.443Z,71.30
2023-06-29T09:52:04.067Z,71.33
2023-06-29T09:54:05.770Z,71.31
2023-06-29T09:56:07.906Z,70.71
2023-06-29T09:58:09.677Z,69.32
2023-06-29T10:00:12.833Z,70.37
2023-06-29T10:02:15.141Z,71.04
2023-06-29T10:04:16.661Z,69.83
2023-06-29T10:06:22.836Z,69.68
2023-06-29T10:08:28.272Z,70.24
2023-06-29T10:10:34.372Z,70.08
2023-06-29T10:12:35.945Z,71.21
2023-06-29T10:14:43.193Z,71.03
2023-06-29T10:16:50.183Z,70.72
2023-06-29T10:18:55.437Z,71.04
2023-06-29T10:20:57.410Z,70.54
2023-06-29T10:23:02.274Z,70.99
2023-06-29T10:25:08.966Z,71.18
2023-06-29T10:27:11.616Z,71.94
2023-06-29T10:29:13.213Z,70.87
2023-06-29T10:31:20.144Z,70.44
2023-06-29T10:33:23.379Z,71.12
2023-06-29T10:35:27.124Z,71.58
2023-06-29T10:37:32.819Z,71.45
2023-06-29T10:39:45.277Z,71.30
2023-06-29T10:41:48.733Z,70.93
2023-06-29T10:44:01.520Z,70.74
2023-06-29T10:46:03.204Z,69.23
2023-06-29T10:48:07.050Z,68.43
2023-06-29T10:50:29.532Z,66.88
2023-06-29T10:52:33.180Z,66.84
2023-06-29T10:54:34.871Z,67.11
2023-06-29T10:56:36.398Z,67.47
2023-06-29T10:58:38.778Z,67.78
2023-06-29T11:00:41.107Z,67.93
2023-06-29T11:02:43.217Z,67.46
2023-06-29T11:04:45.120Z,67.52
2023-06-29T11:06:46.737Z,67.23
2023-06-29T11:08:48.902Z,67.49
2023-06-29T11:10:54.255Z,66.09
2023-06-29T11:12:56.259Z,65.62
2023-06-29T11:15:18.251Z,66.46
2023-06-29T11:17:20.206Z,65.88
2023-06-29T11:19:27.181Z,65.41
2023-06-29T11:21:28.767Z,66.07
2023-06-29T11:23:30.331Z,66.68
2023-06-29T11:25:31.951Z,66.75
2023-06-29T11:27:33.676Z,66.02
2023-06-29T11:29:35.333Z,66.28
2023-06-29T11:31:37.079Z,66.83
2023-06-29T11:33:50.784Z,66.72
2023-06-29T11:35:52.344Z,67.10
2023-06-29T11:38:01.744Z,67.44
2023-06-29T11:40:08.966Z,67.95
2023-06-29T11:42:10.820Z,68.57
2023-06-29T11:44:15.040Z,68.40
2023-06-29T11:46:18.646Z,67.50
2023-06-29T11:48:20.589Z,68.07
2023-06-29T11:50:23.982Z,67.34
2023-06-29T11:52:26.134Z,68.34
2023-06-29T11:54:30.744Z,68.48
2023-06-29T11:56:39.837Z,67.66
2023-06-29T11:58:44.214Z,67.90
2023-06-29T12:00:45.802Z,67.82
2023-06-29T12:02:47.727Z,67.98
2023-06-29T12:04:56.519Z,68.01
2023-06-29T12:06:58.963Z,67.60
2023-06-29T12:09:00.640Z,67.45
2023-06-29T12:11:04.692Z,67.27
2023-06-29T12:13:09.930Z,67.87
2023-06-29T12:15:16.375Z,66.42
2023-06-29T12:19:51.460Z,67.88
2023-06-29T12:22:12.518Z,66.44
2023-06-29T12:24:17.762Z,65.90
2023-06-29T12:26:20.481Z,66.21
2023-06-29T12:28:22.999Z,66.63
2023-06-29T12:30:24.608Z,66.42
2023-06-29T12:32:26.123Z,65.65
2023-06-29T12:34:30.013Z,66.37
2023-06-29T12:36:31.568Z,67.21
2023-06-29T12:38:33.054Z,66.84
2023-06-29T12:40:35.020Z,67.01
2023-06-29T12:42:38.709Z,66.27
2023-06-29T12:44:40.552Z,65.33
2023-06-29T12:46:42.090Z,64.38
2023-06-29T12:48:46.670Z,64.59
2023-06-29T12:50:48.561Z,65.30
2023-06-29T12:52:50.402Z,65.67
2023-06-29T12:54:53.423Z,64.74
2023-06-29T12:56:55.011Z,65.00
2023-06-29T12:58:56.552Z,65.02
2023-06-29T13:00:58.202Z,64.38
2023-06-29T13:03:00.219Z,65.27
2023-06-29T13:05:02.466Z,65.30
2023-06-29T13:07:04.156Z,66.28
2023-06-29T13:09:05.761Z,66.49
2023-06-29T13:11:07.553Z,66.60
2023-06-29T13:13:09.139Z,66.24
2023-06-29T13:15:11.336Z,65.81
2023-06-29T13:17:13.290Z,65.34
2023-06-29T13:19:14.958Z,64.77
2023-06-29T13:21:17.096Z,65.48
2023-06-29T13:23:18.723Z,66.57
2023-06-29T13:25:22.282Z,66.24
2023-06-29T13:27:23.784Z,65.38
2023-06-29T13:29:25.645Z,65.02
2023-06-29T13:31:27.390Z,65.55
2023-06-29T13:33:29.017Z,65.61
2023-06-29T13:35:30.566Z,64.76
2023-06-29T13:37:32.154Z,64.87
2023-06-29T13:39:34.266Z,65.29
2023-06-29T13:41:37.125Z,64.71
2023-06-29T13:43:38.645Z,65.39
2023-06-29T13:45:40.217Z,66.22
2023-06-29T13:47:43.876Z,65.33
2023-06-29T13:49:45.994Z,65.34
2023-06-29T13:51:49.401Z,64.75
2023-06-29T13:53:51.310Z,65.16
2023-06-29T13:55:52.836Z,65.07
2023-06-29T13:57:54.362Z,64.98
2023-06-29T13:59:55.886Z,65.31
2023-06-29T14:01:57.722Z,65.51
2023-06-29T14:04:02.066Z,65.43
2023-06-29T14:06:03.927Z,66.02
2023-06-29T14:08:05.782Z,66.57
2023-06-29T14:10:07.788Z,67.18
2023-06-29T14:12:09.640Z,67.88
2023-06-29T14:14:11.321Z,68.48
2023-06-29T14:16:12.886Z,68.77
2023-06-29T14:18:14.593Z,69.27
2023-06-29T14:20:16.271Z,68.96
2023-06-29T14:22:17.798Z,68.59
2023-06-29T14:24:19.441Z,69.41
2023-06-29T14:26:22.171Z,69.78
2023-06-29T14:28:23.714Z,70.89
2023-06-29T14:30:25.237Z,71.77
2023-06-29T14:32:26.896Z,72.17
2023-06-29T14:34:28.503Z,72.99
2023-06-29T14:36:30.084Z,74.32
2023-06-29T14:38:32.016Z,75.20
2023-06-29T14:40:33.554Z,75.59
2023-06-29T14:42:35.166Z,76.84
2023-06-29T14:44:36.889Z,77.97
2023-06-29T14:46:38.550Z,77.71
2023-06-29T14:48:40.056Z,79.28
2023-06-29T14:50:41.605Z,81.02
2023-06-29T14:52:43.128Z,82.40
2023-06-29T14:54:44.639Z,82.67
2023-06-29T14:56:46.291Z,83.98
2023-06-29T14:58:47.860Z,85.04
2023-06-29T15:00:49.552Z,85.88
2023-06-29T15:02:51.166Z,84.63
2023-06-29T15:04:53.145Z,85.41
2023-06-29T15:06:54.781Z,86.24
2023-06-29T15:08:56.554Z,86.58
2023-06-29T15:10:58.098Z,87.22
2023-06-29T15:12:59.677Z,86.73
2023-06-29T15:15:02.845Z,86.48
2023-06-29T15:17:04.681Z,86.63
2023-06-29T15:19:06.233Z,86.37
2023-06-29T15:21:07.841Z,86.30
2023-06-29T15:23:09.483Z,86.03
2023-06-29T15:25:11.318Z,85.02
2023-06-29T15:27:12.856Z,85.40
2023-06-29T15:29:14.363Z,84.83
2023-06-29T15:31:16.194Z,85.18
2023-06-29T15:33:18.750Z,85.33
2023-06-29T15:35:20.379Z,84.56
2023-06-29T15:37:22.129Z,83.70
2023-06-29T15:39:23.731Z,84.33
2023-06-29T15:41:25.353Z,84.65
2023-06-29T15:43:27.536Z,84.67
2023-06-29T15:45:29.204Z,85.07
2023-06-29T15:47:30.887Z,83.94
2023-06-29T15:49:32.549Z,82.33
2023-06-29T15:51:34.075Z,83.24
2023-06-29T15:53:35.589Z,83.02
2023-06-29T15:55:37.140Z,82.46
2023-06-29T15:57:38.683Z,83.14
2023-06-29T15:59:40.224Z,83.04
2023-06-29T16:01:41.762Z,83.14
2023-06-29T16:03:43.494Z,82.54
2023-06-29T16:05:45.632Z,83.08
2023-06-29T16:07:47.917Z,82.42
2023-06-29T16:09:49.515Z,82.28
2023-06-29T16:11:51.082Z,84.00
2023-06-29T16:13:52.695Z,84.59
2023-06-29T16:15:54.260Z,84.19
2023-06-29T16:17:55.778Z,84.25
2023-06-29T16:19:57.692Z,84.56
2023-06-29T16:21:59.217Z,84.12
2023-06-29T16:24:00.703Z,84.27
2023-06-29T16:26:02.255Z,84.66
2023-06-29T16:28:03.876Z,84.80
2023-06-29T16:30:06.331Z,84.78
2023-06-29T16:32:08.325Z,84.07
2023-06-29T16:34:10.004Z,83.32
2023-06-29T16:36:11.676Z,83.86
2023-06-29T16:38:13.218Z,83.89
2023-06-29T16:40:14.811Z,84.19
2023-06-29T16:42:16.450Z,83.91
2023-06-29T16:44:18.002Z,83.67
2023-06-29T16:46:19.545Z,84.44
2023-06-29T16:48:21.071Z,84.24
2023-06-29T16:50:23.429Z,82.74
2023-06-29T16:52:24.932Z,84.49
2023-06-29T16:54:26.498Z,84.64
2023-06-29T16:56:29.550Z,82.83
2023-06-29T16:58:31.140Z,84.22
2023-06-29T17:00:32.685Z,85.37
2023-06-29T17:02:34.302Z,86.03
2023-06-29T17:04:35.858Z,86.55
2023-06-29T17:06:37.398Z,87.07
2023-06-29T17:08:40.975Z,87.04
2023-06-29T17:10:42.651Z,87.46
2023-06-29T17:12:44.316Z,86.86
2023-06-29T17:14:45.889Z,87.16
2023-06-29T17:16:47.564Z,86.49
2023-06-29T17:18:49.159Z,85.00
2023-06-29T17:20:50.779Z,85.16
2023-06-29T17:22:52.498Z,85.94
2023-06-29T17:24:54.582Z,86.02
2023-06-29T17:26:56.255Z,86.42
2023-06-29T17:28:58.256Z,86.37
2023-06-29T17:30:59.985Z,87.01
2023-06-29T17:33:01.531Z,86.87
2023-06-29T17:35:03.524Z,86.17
2023-06-29T17:37:05.341Z,84.59
2023-06-29T17:39:06.829Z,84.36
2023-06-29T17:41:09.686Z,84.96
2023-06-29T17:43:11.914Z,85.49
2023-06-29T17:45:13.474Z,85.65
2023-06-29T17:47:15.201Z,86.01
2023-06-29T17:49:16.714Z,85.51
2023-06-29T17:51:19.977Z,85.97
2023-06-29T17:53:21.821Z,85.01
2023-06-29T17:55:23.382Z,85.21
2023-06-29T17:57:24.877Z,85.59
2023-06-29T17:59:26.507Z,85.77
2023-06-29T18:01:28.161Z,86.32
2023-06-29T18:03:29.982Z,86.63
2023-06-29T18:05:31.603Z,86.76
2023-06-29T18:07:33.278Z,87.36
2023-06-29T18:09:34.819Z,87.78
2023-06-29T18:11:36.364Z,87.44
2023-06-29T18:13:37.935Z,87.68
2023-06-29T18:15:39.645Z,87.71
2023-06-29T18:17:41.182Z,88.95
2023-06-29T18:19:42.724Z,90.42
2023-06-29T18:21:45.919Z,91.89
2023-06-29T18:23:47.444Z,93.38
2023-06-29T18:25:49.016Z,94.82
2023-06-29T18:27:50.626Z,96.52
2023-06-29T18:29:52.417Z,96.94
2023-06-29T18:31:54.431Z,97.34
2023-06-29T18:33:57.154Z,97.58
2023-06-29T18:35:58.726Z,97.46
2023-06-29T18:38:00.538Z,97.52
2023-06-29T18:40:02.067Z,96.57
2023-06-29T18:42:03.762Z,95.26
2023-06-29T18:44:06.078Z,93.78
2023-06-29T18:46:07.706Z,91.12
2023-06-29T18:48:09.398Z,89.89
2023-06-29T18:50:11.372Z,91.82
2023-06-29T18:52:13.313Z,93.85
2023-06-29T18:54:14.818Z,95.05
2023-06-29T18:56:16.360Z,95.90
2023-06-29T18:58:17.843Z,95.91
2023-06-29T19:00:19.465Z,95.69
2023-06-29T19:02:20.963Z,95.31
2023-06-29T19:04:22.438Z,96.13
2023-06-29T19:06:24.260Z,96.48
2023-06-29T19:08:26.195Z,96.56
2023-06-29T19:10:30.097Z,96.74
2023-06-29T19:12:31.993Z,97.02
2023-06-29T19:14:33.650Z,97.66
2023-06-29T19:16:35.897Z,97.86
2023-06-29T19:18:37.464Z,97.69
2023-06-29T19:20:38.993Z,97.29
2023-06-29T19:22:40.562Z,96.73
2023-06-29T19:24:42.156Z,96.33
2023-06-29T19:26:43.849Z,96.30
2023-06-29T19:28:45.566Z,95.86
2023-06-29T19:30:47.233Z,96.37
2023-06-29T19:32:48.786Z,96.66
2023-06-29T19:34:51.515Z,97.37
2023-06-29T19:36:53.135Z,97.90
2023-06-29T19:38:54.650Z,98.55
2023-06-29T19:40:56.600Z,98.89
2023-06-29T19:42:58.714Z,99.01
2023-06-29T19:45:00.289Z,98.91
2023-06-29T19:47:01.934Z,98.78
2023-06-29T19:49:03.887Z,97.19
2023-06-29T19:51:05.571Z,95.46
2023-06-29T19:53:07.407Z,94.57
2023-06-29T19:55:10.915Z,95.11
2023-06-29T19:57:13.293Z,96.27
2023-06-29T19:59:14.982Z,97.11
2023-06-29T20:01:16.617Z,97.67
2023-06-29T20:03:19.383Z,97.55
2023-06-29T20:05:21.613Z,96.95
2023-06-29T20:07:23.343Z,96.17
2023-06-29T20:09:25.149Z,95.14
2023-06-29T20:11:28.763Z,94.77
2023-06-29T20:13:30.316Z,94.70
2023-06-29T20:15:32.014Z,94.28
2023-06-29T20:17:35.682Z,92.99
2023-06-29T20:19:37.297Z,91.93
2023-06-29T20:21:38.829Z,92.72
2023-06-29T20:23:40.321Z,93.26
2023-06-29T20:25:41.843Z,94.20
2023-06-29T20:27:44.907Z,95.12
2023-06-29T20:29:49.750Z,95.34
2023-06-29T20:31:51.397Z,94.99
2023-06-29T20:33:53.366Z,95.24
2023-06-29T20:35:54.962Z,95.79
2023-06-29T20:37:56.468Z,96.34
2023-06-29T20:39:57.973Z,96.14
2023-06-29T20:41:59.903Z,96.26
2023-06-29T20:44:01.441Z,97.49
2023-06-29T20:46:03.058Z,98.26
2023-06-29T20:48:05.164Z,98.80
2023-06-29T20:50:07.314Z,98.85
2023-06-29T20:52:08.841Z,98.94
2023-06-29T20:54:10.427Z,99.23
2023-06-29T20:56:11.954Z,100.00
2023-06-29T20:58:13.585Z,100.00
2023-06-29T21:00:15.637Z,100.00
2023-06-29T21:02:18.587Z,100.00
2023-06-29T21:04:20.377Z,100.00
2023-06-29T21:06:22.135Z,100.00
2023-06-29T21:08:23.627Z,100.00
2023-06-29T21:10:25.196Z,100.00
2023-06-29T21:12:27.301Z,100.00
2023-06-29T21:14:28.993Z,100.00
2023-06-29T21:16:31.036Z,100.00
2023-06-29T21:18:32.918Z,100.00
2023-06-29T21:20:35.743Z,100.00
2023-06-29T21:22:37.774Z,100.00
2023-06-29T21:24:39.604Z,100.00
2023-06-29T21:26:41.234Z,100.00
2023-06-29T21:28:43.521Z,100.00
2023-06-29T21:30:45.315Z,100.00
2023-06-29T21:32:47.196Z,100.00
2023-06-29T21:34:48.969Z,100.00
2023-06-29T21:36:50.679Z,100.00
2023-06-29T21:38:52.319Z,100.00
2023-06-29T21:40:53.893Z,100.00
2023-06-29T21:42:55.473Z,100.00
2023-06-29T21:44:56.973Z,100.00
2023-06-29T21:47:01.297Z,100.00
2023-06-29T21:49:02.992Z,100.00
2023-06-29T21:51:04.493Z,100.00
2023-06-29T21:53:05.986Z,100.00
2023-06-29T21:55:07.922Z,100.00
2023-06-29T21:57:09.458Z,100.00
2023-06-29T21:59:11.008Z,100.00
2023-06-29T22:01:12.631Z,100.00
2023-06-29T22:03:14.279Z,100.00
2023-06-29T22:05:16.087Z,100.00
2023-06-29T22:07:17.772Z,100.00
2023-06-29T22:09:19.716Z,100.00
2023-06-29T22:11:22.172Z,100.00
2023-06-29T22:13:24.372Z,100.00
2023-06-29T22:15:25.891Z,100.00
2023-06-29T22:17:27.935Z,100.00
2023-06-29T22:19:29.686Z,100.00
2023-06-29T22:21:31.480Z,100.00
2023-06-29T22:23:33.274Z,100.00
2023-06-29T22:25:34.775Z,100.00
2023-06-29T22:27:37.138Z,100.00
2023-06-29T22:29:38.646Z,100.00
2023-06-29T22:31:40.182Z,100.00
2023-06-29T22:33:41.711Z,100.00
2023-06-29T22:35:43.511Z,100.00
2023-06-29T22:37:45.304Z,100.00
2023-06-29T22:39:49.662Z,100.00
2023-06-29T22:41:51.170Z,100.00
2023-06-29T22:43:58.449Z,100.00
2023-06-29T22:46:00.086Z,100.00
2023-06-29T22:48:03.261Z,100.00
2023-06-29T22:50:05.717Z,100.00
2023-06-29T22:52:07.441Z,100.00
2023-06-29T22:54:10.075Z,100.00
2023-06-29T22:56:11.643Z,100.00
2023-06-29T22:58:20.905Z,100.00
2023-06-29T23:00:22.928Z,100.00
2023-06-29T23:02:24.531Z,100.00
2023-06-29T23:04:26.111Z,100.00
2023-06-29T23:06:29.298Z,100.00
2023-06-29T23:08:31.105Z,100.00
2023-06-29T23:10:32.580Z,100.00
2023-06-29T23:12:34.063Z,100.00
2023-06-29T23:14:36.317Z,100.00
2023-06-29T23:16:37.851Z,100.00
2023-06-29T23:18:39.598Z,100.00
2023-06-29T23:20:47.660Z,100.00
2023-06-29T23:22:49.273Z,100.00
2023-06-29T23:24:53.788Z,100.00
2023-06-29T23:26:55.666Z,100.00
2023-06-29T23:28:57.141Z,100.00
2023-06-29T23:30:58.795Z,100.00
2023-06-29T23:33:00.402Z,100.00
2023-06-29T23:35:01.935Z,100.00
2023-06-29T23:37:03.542Z,100.00
2023-06-29T23:39:06.741Z,100.00
2023-06-29T23:41:08.355Z,100.00
2023-06-29T23:43:09.977Z,100.00
2023-06-29T23:45:12.511Z,100.00
2023-06-29T23:47:14.255Z,100.00
2023-06-29T23:49:18.143Z,100.00
2023-06-29T23:51:19.684Z,100.00
2023-06-29T23:53:21.172Z,100.00
2023-06-29T23:55:23.344Z,100.00
2023-06-29T23:57:24.874Z,100.00
2023-06-29T23:59:26.424Z,100.00
